Time;durP1;ratioP1;P1;durP2;ratioP2;P2;SDS_P1;SDS_P2;PMS_P1;PMS_P2;Temp;Humidity;BMP_temperature;BMP_pressure;BME280_temperature;BME280_humidity;BME280_pressure;Samples;Min_cycle;Max_cycle;Signal;HPM_P1;HPM_P2
2022/10/01 00:01:15;;;;;;;29.00;19.92;;;13.30;99.90;;;;;;4994109;28;20026;-77
2022/10/01 00:03:41;;;;;;;27.02;17.70;;;13.30;99.90;;;;;;4994645;28;20069;-78
2022/10/01 00:06:19;;;;;;;26.73;18.55;;;13.30;99.90;;;;;;4993319;28;20049;-77
2022/10/01 00:08:47;;;;;;;28.23;18.65;;;13.30;99.90;;;;;;4994159;28;20493;-77
2022/10/01 00:11:22;;;;;;;28.15;18.63;;;13.30;99.90;;;;;;4990586;28;20030;-76
2022/10/01 00:13:49;;;;;;;31.08;19.73;;;13.30;99.90;;;;;;4993379;28;20027;-78
2022/10/01 00:16:21;;;;;;;30.98;20.73;;;13.30;99.90;;;;;;4994466;28;20033;-76
2022/10/01 00:18:48;;;;;;;28.73;19.25;;;13.30;99.90;;;;;;4997660;28;20026;-78
2022/10/01 00:21:16;;;;;;;29.23;19.48;;;13.30;99.90;;;;;;4999434;28;20025;-77
2022/10/01 00:23:43;;;;;;;32.75;20.23;;;13.30;99.90;;;;;;4996806;28;20148;-76
2022/10/01 00:26:19;;;;;;;32.08;20.92;;;13.30;99.90;;;;;;4996102;28;20034;-78
2022/10/01 00:28:47;;;;;;;28.17;19.55;;;13.30;99.90;;;;;;4994521;28;20057;-77
2022/10/01 00:31:14;;;;;;;26.75;19.13;;;13.30;99.90;;;;;;4997021;28;20029;-79
2022/10/01 00:33:41;;;;;;;27.38;19.30;;;13.30;99.90;;;;;;4996860;28;20026;-77
2022/10/01 00:36:08;;;;;;;30.65;20.25;;;13.20;99.90;;;;;;4995366;28;20023;-77
2022/10/01 00:38:35;;;;;;;29.27;20.25;;;13.20;99.90;;;;;;4995709;28;20022;-79
2022/10/01 00:41:02;;;;;;;31.27;20.10;;;13.20;99.90;;;;;;4994393;28;20037;-79
2022/10/01 00:43:34;;;;;;;30.45;20.77;;;13.20;99.90;;;;;;4994567;28;20495;-77
2022/10/01 00:46:12;;;;;;;28.95;19.33;;;13.20;99.90;;;;;;4993487;28;20053;-77
2022/10/01 00:49:01;;;;;;;33.05;21.02;;;13.20;99.90;;;;;;4994888;28;20125;-78
2022/10/01 00:51:33;;;;;;;32.53;22.23;;;13.20;99.90;;;;;;4992060;28;20049;-78
2022/10/01 00:54:10;;;;;;;32.28;20.92;;;13.10;99.90;;;;;;4994876;28;20046;-77
2022/10/01 00:56:37;;;;;;;30.75;20.60;;;13.10;99.90;;;;;;4996040;28;20034;-78
2022/10/01 00:59:04;;;;;;;29.58;20.45;;;13.10;99.90;;;;;;4994553;28;20101;-77
2022/10/01 01:01:31;;;;;;;32.00;20.25;;;13.20;99.90;;;;;;4995089;28;20401;-78
2022/10/01 01:03:57;;;;;;;28.77;20.58;;;13.20;99.90;;;;;;4994158;28;20073;-78
2022/10/01 01:06:23;;;;;;;31.25;20.50;;;13.20;99.90;;;;;;4997515;28;20060;-77
2022/10/01 01:08:53;;;;;;;32.00;20.90;;;13.20;99.90;;;;;;4995054;28;20034;-77
2022/10/01 01:11:38;;;;;;;32.03;19.95;;;13.30;99.90;;;;;;4993443;28;20486;-77
2022/10/01 01:14:21;;;;;;;30.85;20.08;;;13.30;99.90;;;;;;4993562;28;20038;-76
2022/10/01 01:16:57;;;;;;;32.90;20.40;;;13.30;99.90;;;;;;4996154;28;20463;-77
2022/10/01 01:20:04;;;;;;;35.20;19.85;;;13.30;99.90;;;;;;4993204;28;20030;-77
2022/10/01 01:22:34;;;;;;;27.10;19.35;;;13.30;99.90;;;;;;5000374;28;20030;-77
2022/10/01 01:25:13;;;;;;;32.78;20.05;;;13.40;99.90;;;;;;5074999;23;20037;-89
2022/10/01 01:27:45;;;;;;;29.45;19.95;;;13.30;99.90;;;;;;5040285;28;20018;-88
2022/10/01 01:30:14;;;;;;;26.92;19.20;;;13.30;99.90;;;;;;5034023;28;20044;-87
2022/10/01 01:33:03;;;;;;;29.55;18.88;;;13.30;99.90;;;;;;5031042;28;20022;-86
2022/10/01 01:35:41;;;;;;;29.13;19.77;;;13.40;99.90;;;;;;5023055;28;20030;-87
2022/10/01 01:38:13;;;;;;;29.33;19.27;;;13.40;99.90;;;;;;5020018;28;20030;-90
2022/10/01 01:40:41;;;;;;;30.63;20.25;;;13.40;99.90;;;;;;5019909;28;20022;-90
2022/10/01 01:43:12;;;;;;;29.42;19.70;;;13.50;99.90;;;;;;5020038;28;20081;-89
2022/10/01 01:45:40;;;;;;;31.10;20.92;;;13.40;99.90;;;;;;5020345;28;20015;-89
2022/10/01 01:48:08;;;;;;;31.92;20.80;;;13.40;99.90;;;;;;5020065;28;20069;-89
2022/10/01 01:50:47;;;;;;;32.20;21.35;;;13.40;99.90;;;;;;5019882;28;20021;-90
2022/10/01 01:53:14;;;;;;;28.67;20.38;;;13.40;99.90;;;;;;5019861;28;20030;-89
2022/10/01 01:55:43;;;;;;;33.85;20.90;;;13.40;99.90;;;;;;5019432;28;20025;-89
2022/10/01 01:58:09;;;;;;;30.13;19.65;;;13.50;99.90;;;;;;5019795;28;20062;-84
2022/10/01 02:00:35;;;;;;;29.05;20.00;;;13.50;99.90;;;;;;5019240;28;20021;-83
2022/10/01 02:03:01;;;;;;;31.85;21.63;;;13.50;99.90;;;;;;5020160;28;20018;-85
2022/10/01 02:05:35;;;;;;;29.23;20.42;;;13.50;99.90;;;;;;5019724;28;20025;-84
2022/10/01 02:08:04;;;;;;;29.77;19.85;;;13.60;99.90;;;;;;5019376;28;20019;-85
2022/10/01 02:10:49;;;;;;;29.60;20.15;;;13.60;99.90;;;;;;5045807;28;20038;-87
2022/10/01 02:13:27;;;;;;;28.80;20.00;;;13.60;99.90;;;;;;5019214;28;20019;-83
2022/10/01 02:16:19;;;;;;;32.85;20.60;;;13.60;99.90;;;;;;5007803;28;20028;-86
2022/10/01 02:18:59;;;;;;;30.50;20.48;;;13.70;99.90;;;;;;5031763;28;20065;-84
2022/10/01 02:21:45;;;;;;;31.35;20.33;;;13.60;99.90;;;;;;5005500;28;20079;-84
2022/10/01 02:24:21;;;;;;;32.17;20.42;;;13.60;99.90;;;;;;5012831;28;20027;-85
2022/10/01 02:26:49;;;;;;;29.33;20.73;;;13.60;99.90;;;;;;5007231;28;20082;-85
2022/10/01 02:29:18;;;;;;;31.67;20.58;;;13.70;99.90;;;;;;5010274;28;20014;-86
2022/10/01 02:31:50;;;;;;;29.25;20.35;;;13.60;99.90;;;;;;5029192;28;20011;-84
2022/10/01 02:34:17;;;;;;;29.10;20.25;;;13.60;99.90;;;;;;5010946;28;20022;-84
2022/10/01 02:36:51;;;;;;;31.08;20.83;;;13.60;99.90;;;;;;5004610;28;20035;-88
2022/10/01 02:39:18;;;;;;;;;;;13.60;99.90;;;;;;5025317;28;20050;-82
2022/10/01 02:41:45;;;;;;;33.60;20.75;;;13.60;99.90;;;;;;5001923;28;19969;-87
2022/10/01 02:44:20;;;;;;;33.65;20.95;;;13.60;99.90;;;;;;5013703;28;20094;-86
2022/10/01 02:46:57;;;;;;;30.80;20.60;;;13.60;99.90;;;;;;5008964;28;20061;-87
2022/10/01 02:49:24;;;;;;;33.08;20.73;;;13.60;99.90;;;;;;5006300;28;20022;-86
2022/10/01 02:52:08;;;;;;;32.47;21.45;;;13.60;99.90;;;;;;5005363;28;20025;-88
2022/10/01 02:54:55;;;;;;;32.40;22.80;;;13.60;99.90;;;;;;5005892;28;20038;-87
2022/10/01 02:57:22;;;;;;;32.60;21.75;;;13.60;99.90;;;;;;5008244;28;20046;-86
2022/10/01 03:00:08;;;;;;;34.60;22.15;;;13.60;99.90;;;;;;5014049;28;20038;-87
2022/10/01 03:02:34;;;;;;;31.50;20.85;;;13.50;99.90;;;;;;5005981;28;20038;-87
2022/10/01 03:05:00;;;;;;;34.83;22.83;;;13.60;99.90;;;;;;5006054;28;20042;-87
2022/10/01 03:07:29;;;;;;;33.30;21.90;;;13.50;99.90;;;;;;5008467;28;20089;-85
2022/10/01 03:09:55;;;;;;;37.03;23.83;;;13.50;99.90;;;;;;5006764;28;20069;-88
2022/10/01 03:12:22;;;;;;;38.42;23.77;;;13.50;99.90;;;;;;5008851;28;20110;-85
2022/10/01 03:14:48;;;;;;;37.70;24.77;;;13.40;99.90;;;;;;5008848;28;20032;-88
2022/10/01 03:17:15;;;;;;;40.22;24.42;;;13.40;99.90;;;;;;5008755;28;20026;-86
2022/10/01 03:19:41;;;;;;;41.15;24.75;;;13.40;99.90;;;;;;5014655;28;20042;-83
2022/10/01 03:22:10;;;;;;;37.03;24.00;;;13.50;99.90;;;;;;5017682;28;20037;-84
2022/10/01 03:24:36;;;;;;;35.85;24.15;;;13.50;99.90;;;;;;5017778;28;20018;-84
2022/10/01 03:27:02;;;;;;;39.53;24.73;;;13.50;99.90;;;;;;5018214;28;20018;-84
2022/10/01 03:29:28;;;;;;;40.03;23.58;;;13.50;99.90;;;;;;5001354;28;20089;-83
2022/10/01 03:31:54;;;;;;;40.92;24.60;;;13.50;99.90;;;;;;5017537;28;20072;-81
2022/10/01 03:34:20;;;;;;;36.75;24.15;;;13.50;99.90;;;;;;5017900;28;20023;-83
2022/10/01 03:36:46;;;;;;;38.92;22.70;;;13.50;99.90;;;;;;5017524;28;20053;-83
2022/10/01 03:39:12;;;;;;;39.80;23.95;;;13.60;99.90;;;;;;5017876;28;20030;-83
2022/10/01 03:41:38;;;;;;;36.22;23.17;;;13.60;99.90;;;;;;5018075;28;20042;-84
2022/10/01 03:44:04;;;;;;;40.53;23.30;;;13.70;99.90;;;;;;5016353;28;20029;-86
2022/10/01 03:46:29;;;;;;;37.05;22.20;;;13.70;99.90;;;;;;5016717;28;20033;-84
2022/10/01 03:48:58;;;;;;;40.30;24.58;;;13.70;99.90;;;;;;5014464;28;20499;-87
2022/10/01 03:51:24;;;;;;;36.22;22.67;;;13.70;99.90;;;;;;5007413;28;20033;-88
2022/10/01 03:53:49;;;;;;;35.90;21.95;;;13.70;99.90;;;;;;5009605;28;20105;-87
2022/10/01 03:56:15;;;;;;;34.38;22.70;;;13.70;99.90;;;;;;5015737;28;20033;-85
2022/10/01 03:58:41;;;;;;;32.03;21.25;;;13.70;99.90;;;;;;5019206;28;20049;-85
2022/10/01 04:01:07;;;;;;;36.15;21.48;;;13.70;99.90;;;;;;5011949;28;20030;-86
2022/10/01 04:03:33;;;;;;;36.50;24.20;;;13.70;99.90;;;;;;5012620;28;20042;-85
2022/10/01 04:05:59;;;;;;;34.63;21.55;;;13.70;99.90;;;;;;5029981;28;20030;-84
2022/10/01 04:08:24;;;;;;;31.52;19.05;;;13.70;99.90;;;;;;5015077;28;20044;-84
2022/10/01 04:10:51;;;;;;;32.50;21.00;;;13.70;99.90;;;;;;5020684;28;20033;-83
2022/10/01 04:13:17;;;;;;;31.55;19.00;;;13.70;99.90;;;;;;4996651;28;20107;-87
2022/10/01 04:15:43;;;;;;;26.38;16.05;;;13.70;99.90;;;;;;5012722;28;20401;-86
2022/10/01 04:18:09;;;;;;;24.65;15.90;;;13.60;99.90;;;;;;5014344;28;20018;-86
2022/10/01 04:20:36;;;;;;;25.80;16.70;;;13.60;99.90;;;;;;5015364;28;20091;-84
2022/10/01 04:23:03;;;;;;;24.80;16.23;;;13.60;99.90;;;;;;5013701;28;20022;-86
2022/10/01 04:25:29;;;;;;;20.73;15.15;;;13.60;99.90;;;;;;5018242;28;20030;-83
2022/10/01 04:28:03;;;;;;;22.92;15.70;;;13.50;99.90;;;;;;5020028;28;20023;-83
2022/10/01 04:30:33;;;;;;;24.43;14.40;;;13.60;99.90;;;;;;5036187;28;20022;-84
2022/10/01 04:32:59;;;;;;;22.75;14.90;;;13.50;99.90;;;;;;5020467;28;20304;-83
2022/10/01 04:35:26;;;;;;;24.38;14.70;;;13.60;99.90;;;;;;5020787;28;20049;-85
2022/10/01 04:38:02;;;;;;;22.45;13.32;;;13.60;99.90;;;;;;5019382;28;20030;-85
2022/10/01 04:40:33;;;;;;;22.92;13.80;;;13.70;99.90;;;;;;5013687;28;20091;-87
2022/10/01 04:43:00;;;;;;;20.13;13.27;;;13.80;99.90;;;;;;5016010;28;20049;-87
2022/10/01 04:45:25;;;;;;;20.10;12.68;;;13.90;99.90;;;;;;5018696;28;20019;-86
2022/10/01 04:47:54;;;;;;;19.38;12.88;;;13.90;99.90;;;;;;5019178;28;20077;-85
2022/10/01 04:50:21;;;;;;;18.50;12.25;;;13.90;99.90;;;;;;5016473;28;20054;-85
2022/10/01 04:52:49;;;;;;;23.15;13.50;;;13.90;99.90;;;;;;5016609;28;20023;-86
2022/10/01 04:55:16;;;;;;;21.25;12.13;;;13.90;99.90;;;;;;5018018;28;20130;-83
2022/10/01 04:57:42;;;;;;;20.40;13.18;;;14.00;99.90;;;;;;5020264;28;20022;-81
2022/10/01 05:00:13;;;;;;;19.35;12.50;;;14.00;99.90;;;;;;5019708;28;20018;-84
2022/10/01 05:02:39;;;;;;;20.98;13.10;;;14.00;99.90;;;;;;5019435;28;20061;-85
2022/10/01 05:05:07;;;;;;;18.05;12.63;;;14.00;99.90;;;;;;5018706;28;20030;-83
2022/10/01 05:07:34;;;;;;;19.52;12.65;;;14.00;99.90;;;;;;5019007;28;20034;-86
2022/10/01 05:10:00;;;;;;;18.17;11.27;;;14.00;99.90;;;;;;5020177;28;20037;-83
2022/10/01 05:12:27;;;;;;;19.40;12.10;;;14.00;99.90;;;;;;5019972;28;20014;-83
2022/10/01 05:14:54;;;;;;;21.25;13.20;;;14.00;99.90;;;;;;5019973;28;20014;-84
2022/10/01 05:17:21;;;;;;;16.90;12.18;;;14.00;99.90;;;;;;5019888;28;20030;-84
2022/10/01 05:19:47;;;;;;;20.92;12.10;;;14.00;99.90;;;;;;5019478;28;20037;-83
2022/10/01 05:22:14;;;;;;;19.90;11.88;;;14.00;99.90;;;;;;5019812;28;20050;-84
2022/10/01 05:24:40;;;;;;;18.67;13.05;;;14.00;99.90;;;;;;5019879;28;20034;-82
2022/10/01 05:27:12;;;;;;;19.55;12.75;;;14.00;99.90;;;;;;5018743;28;20053;-81
2022/10/01 05:29:41;;;;;;;22.40;11.43;;;13.90;99.90;;;;;;5018793;28;20038;-81
2022/10/01 05:32:09;;;;;;;21.20;12.73;;;13.90;99.90;;;;;;5019650;28;20050;-83
2022/10/01 05:34:35;;;;;;;21.27;13.15;;;13.90;99.90;;;;;;5018801;28;20021;-83
2022/10/01 05:37:01;;;;;;;23.42;12.77;;;13.90;99.90;;;;;;5019365;28;20038;-84
2022/10/01 05:39:28;;;;;;;20.42;12.60;;;13.90;99.90;;;;;;5018453;28;20050;-83
2022/10/01 05:41:54;;;;;;;21.42;12.15;;;14.00;99.90;;;;;;5017900;28;20030;-83
2022/10/01 05:44:24;;;;;;;29.27;13.02;;;14.00;99.90;;;;;;5017339;28;20030;-84
2022/10/01 05:46:49;;;;;;;20.75;13.13;;;14.00;99.90;;;;;;5015031;28;20023;-84
2022/10/01 05:49:16;;;;;;;25.75;13.70;;;14.00;99.90;;;;;;5014355;28;20029;-87
2022/10/01 05:51:43;;;;;;;21.80;12.75;;;14.00;99.90;;;;;;5012499;28;20030;-86
2022/10/01 05:54:09;;;;;;;20.85;13.55;;;13.90;99.90;;;;;;5009031;28;20034;-84
2022/10/01 05:56:35;;;;;;;24.45;13.32;;;13.80;99.90;;;;;;5026592;28;20022;-87
2022/10/01 05:59:02;;;;;;;20.50;12.43;;;13.80;99.90;;;;;;5013002;28;20058;-85
2022/10/01 06:01:27;;;;;;;23.35;12.88;;;13.90;99.90;;;;;;5004862;28;20038;-85
2022/10/01 06:03:54;;;;;;;22.38;12.77;;;14.00;99.90;;;;;;5016121;28;20086;-84
2022/10/01 06:06:25;;;;;;;18.52;12.15;;;14.10;99.90;;;;;;5026674;28;20041;-84
2022/10/01 06:08:51;;;;;;;17.02;11.70;;;14.20;99.90;;;;;;5003495;28;20027;-84
2022/10/01 06:11:17;;;;;;;19.38;11.50;;;14.20;99.90;;;;;;5004870;28;20026;-84
2022/10/01 06:13:44;;;;;;;16.75;11.38;;;14.20;99.90;;;;;;5014986;28;20062;-86
2022/10/01 06:16:11;;;;;;;19.00;11.07;;;14.30;99.90;;;;;;5008204;28;20022;-85
2022/10/01 06:18:36;;;;;;;18.08;11.77;;;14.30;99.90;;;;;;5008204;28;20038;-87
2022/10/01 06:21:03;;;;;;;21.88;11.35;;;14.30;99.90;;;;;;4991845;28;20058;-85
2022/10/01 06:23:29;;;;;;;26.48;12.10;;;14.30;99.90;;;;;;5009667;28;20064;-87
2022/10/01 06:25:57;;;;;;;21.45;11.27;;;14.50;99.90;;;;;;5008839;28;20026;-86
2022/10/01 06:28:23;;;;;;;20.90;11.77;;;14.50;99.90;;;;;;5005484;28;20031;-86
2022/10/01 06:30:49;;;;;;;16.13;10.40;;;14.60;99.90;;;;;;5005632;28;20025;-84
2022/10/01 06:33:15;;;;;;;18.15;11.18;;;14.70;99.90;;;;;;4995009;28;20034;-87
2022/10/01 06:35:46;;;;;;;18.60;11.02;;;14.70;99.90;;;;;;4987852;28;20034;-85
2022/10/01 06:38:13;;;;;;;18.02;11.73;;;14.80;99.90;;;;;;4986603;28;20082;-86
2022/10/01 06:40:39;;;;;;;16.95;10.98;;;14.70;99.90;;;;;;4985127;28;20387;-86
2022/10/01 06:43:07;;;;;;;19.88;12.07;;;14.70;99.90;;;;;;4991827;28;20035;-84
2022/10/01 06:45:37;;;;;;;15.55;10.52;;;14.70;99.90;;;;;;4996458;28;20058;-85
2022/10/01 06:48:03;;;;;;;17.25;10.63;;;14.80;99.90;;;;;;4995593;28;20074;-85
2022/10/01 06:50:31;;;;;;;15.70;10.05;;;14.80;99.90;;;;;;4996445;28;20027;-83
2022/10/01 06:52:57;;;;;;;16.40;10.85;;;14.70;99.90;;;;;;4993479;28;20038;-88
2022/10/01 06:55:27;;;;;;;15.70;10.93;;;14.60;99.90;;;;;;4992185;28;20190;-83
2022/10/01 06:57:59;;;;;;;21.25;10.77;;;14.60;99.90;;;;;;4995119;28;20644;-85
2022/10/01 07:00:28;;;;;;;15.23;11.00;;;14.50;99.90;;;;;;4996155;28;20034;-85
2022/10/01 07:02:54;;;;;;;18.42;9.75;;;14.50;99.90;;;;;;5020671;28;20018;-83
2022/10/01 07:05:22;;;;;;;18.90;11.27;;;14.60;99.90;;;;;;5031875;28;20068;-86
2022/10/01 07:07:47;;;;;;;14.73;10.27;;;14.80;99.90;;;;;;5031162;28;20053;-83
2022/10/01 07:10:16;;;;;;;15.60;10.38;;;14.90;99.90;;;;;;5017222;28;20033;-82
2022/10/01 07:12:41;;;;;;;14.25;10.48;;;14.90;99.90;;;;;;5011273;28;20013;-84
2022/10/01 07:15:08;;;;;;;17.92;10.57;;;14.90;99.90;;;;;;5011116;28;20038;-84
2022/10/01 07:17:42;;;;;;;15.25;10.07;;;14.90;99.90;;;;;;5010580;28;20028;-86
2022/10/01 07:20:08;;;;;;;17.45;10.25;;;15.10;99.90;;;;;;5010698;28;20022;-87
2022/10/01 07:22:35;;;;;;;15.18;9.95;;;15.10;99.90;;;;;;5010472;28;20173;-86
2022/10/01 07:25:01;;;;;;;15.50;9.48;;;15.20;99.90;;;;;;5031267;23;20038;-80
2022/10/01 07:27:27;;;;;;;19.88;10.43;;;15.30;99.90;;;;;;4996704;28;20034;-79
2022/10/01 07:29:53;;;;;;;15.45;9.35;;;15.50;99.90;;;;;;4999032;28;20102;-80
2022/10/01 07:32:18;;;;;;;15.27;9.43;;;15.50;99.90;;;;;;5001335;28;20030;-79
2022/10/01 07:34:44;;;;;;;13.98;8.95;;;15.60;99.90;;;;;;5001544;28;20054;-79
2022/10/01 07:37:10;;;;;;;11.57;8.07;;;15.80;99.90;;;;;;5002575;28;20030;-79
2022/10/01 07:39:36;;;;;;;11.65;8.05;;;15.80;99.90;;;;;;5002797;28;20022;-78
2022/10/01 07:42:02;;;;;;;11.95;7.70;;;15.90;99.90;;;;;;4986589;28;20030;-79
2022/10/01 07:44:28;;;;;;;8.98;6.93;;;16.00;99.90;;;;;;5002849;28;20026;-79
2022/10/01 07:46:55;;;;;;;8.20;6.63;;;16.10;99.90;;;;;;5000343;28;20034;-79
2022/10/01 07:49:23;;;;;;;12.77;7.35;;;16.20;99.90;;;;;;4981870;28;20045;-79
2022/10/01 07:51:50;;;;;;;10.23;6.40;;;16.20;99.90;;;;;;4982518;28;20027;-79
2022/10/01 07:54:16;;;;;;;11.07;6.65;;;16.20;99.90;;;;;;5000985;28;20022;-80
2022/10/01 07:56:41;;;;;;;10.55;7.18;;;16.30;99.90;;;;;;4999430;28;20054;-81
2022/10/01 07:59:09;;;;;;;10.07;6.25;;;16.40;99.90;;;;;;4981151;28;20022;-79
2022/10/01 08:01:35;;;;;;;13.35;6.78;;;16.60;99.90;;;;;;4983305;28;20027;-80
2022/10/01 08:05:16;;;;;;;14.10;7.20;;;16.70;99.90;;;;;;4999947;28;20041;-80
2022/10/01 08:06:47;;;;;;;17.05;7.90;;;16.90;99.90;;;;;;5003539;28;20406;-79
2022/10/01 08:09:14;;;;;;;11.60;6.70;;;17.10;99.90;;;;;;4999748;28;20034;-79
2022/10/01 08:11:40;;;;;;;11.65;6.93;;;17.10;99.90;;;;;;5000278;28;20038;-80
2022/10/01 08:14:06;;;;;;;9.65;6.40;;;17.10;99.90;;;;;;4998362;28;20097;-80
2022/10/01 08:16:33;;;;;;;14.50;6.10;;;17.30;99.90;;;;;;4981204;28;20056;-79
2022/10/01 08:18:59;;;;;;;8.20;5.63;;;17.40;99.90;;;;;;4980612;28;20061;-80
2022/10/01 08:21:27;;;;;;;6.05;5.07;;;17.50;99.90;;;;;;5000545;28;20360;-78
2022/10/01 08:23:53;;;;;;;11.88;6.45;;;17.50;99.90;;;;;;5000736;28;20030;-79
2022/10/01 08:26:18;;;;;;;8.73;5.63;;;17.60;99.90;;;;;;5001233;28;20026;-79
2022/10/01 08:28:44;;;;;;;10.75;6.03;;;17.70;99.90;;;;;;5002238;28;20049;-78
2022/10/01 08:31:10;;;;;;;8.65;5.90;;;17.50;99.90;;;;;;4983229;28;20030;-81
2022/10/01 08:33:37;;;;;;;11.88;6.15;;;17.40;99.90;;;;;;4998133;28;20111;-79
2022/10/01 08:36:08;;;;;;;10.85;5.40;;;17.40;99.90;;;;;;4981077;28;20038;-79
2022/10/01 08:38:34;;;;;;;8.55;5.68;;;17.40;99.90;;;;;;5003966;28;20037;-80
2022/10/01 08:41:16;;;;;;;12.18;5.97;;;17.40;99.90;;;;;;5005101;28;20049;-80
2022/10/01 08:43:42;;;;;;;7.57;5.32;;;17.30;99.90;;;;;;5003055;28;20084;-81
2022/10/01 08:46:18;;;;;;;9.32;6.55;;;17.30;99.90;;;;;;4983181;28;20037;-79
2022/10/01 08:49:06;;;;;;;7.38;5.55;;;17.30;99.90;;;;;;4983861;28;20058;-77
2022/10/01 08:51:43;;;;;;;13.32;6.18;;;17.30;99.90;;;;;;5001278;28;20035;-80
2022/10/01 08:54:27;;;;;;;10.07;5.88;;;17.30;99.90;;;;;;4999385;28;20089;-80
2022/10/01 08:56:56;;;;;;;8.13;6.03;;;17.20;99.90;;;;;;5000510;28;20034;-79
2022/10/01 08:59:45;;;;;;;11.15;6.30;;;17.30;99.90;;;;;;4999916;28;20026;-80
2022/10/01 09:02:23;;;;;;;10.70;6.28;;;17.40;99.90;;;;;;4999885;28;20030;-80
2022/10/01 09:04:56;;;;;;;9.43;5.15;;;17.40;99.90;;;;;;4983440;28;20026;-81
2022/10/01 09:07:54;;;;;;;10.63;5.68;;;17.40;99.90;;;;;;4982014;28;20470;-80
2022/10/01 09:10:41;;;;;;;8.63;5.50;;;17.30;99.90;;;;;;4994152;28;20061;-78
2022/10/01 09:13:19;;;;;;;10.63;5.78;;;17.30;99.90;;;;;;4966735;28;20034;-79
2022/10/01 09:16:22;;;;;;;8.40;5.97;;;17.10;99.90;;;;;;5007929;28;20019;-81
2022/10/01 09:18:57;;;;;;;10.10;6.10;;;17.10;99.90;;;;;;5008442;28;20086;-79
2022/10/01 09:21:45;;;;;;;11.10;7.60;;;17.10;99.90;;;;;;5003029;28;20034;-80
2022/10/01 09:24:21;;;;;;;10.23;6.07;;;17.10;99.90;;;;;;4999793;28;20054;-80
2022/10/01 09:26:50;;;;;;;7.95;5.95;;;17.10;99.90;;;;;;5000649;28;20034;-81
2022/10/01 09:29:27;;;;;;;9.95;6.32;;;17.10;99.90;;;;;;5000320;28;20446;-80
2022/10/01 09:31:55;;;;;;;8.95;6.00;;;17.10;99.90;;;;;;4981599;28;20039;-82
2022/10/01 09:34:31;;;;;;;9.10;5.70;;;17.20;99.90;;;;;;4999750;28;20113;-78
2022/10/01 09:37:06;;;;;;;10.20;4.93;;;17.20;99.90;;;;;;5008806;28;20506;-79
2022/10/01 09:40:14;;;;;;;7.60;4.90;;;17.30;99.90;;;;;;4986532;28;20070;-79
2022/10/01 09:42:41;;;;;;;7.80;5.07;;;17.50;99.90;;;;;;4972693;28;20391;-79
2022/10/01 09:45:12;;;;;;;10.05;5.88;;;17.60;99.90;;;;;;4982671;28;20368;-80
2022/10/01 09:47:42;;;;;;;8.18;5.50;;;17.80;99.90;;;;;;4998325;28;20532;-80
2022/10/01 09:50:14;;;;;;;12.75;7.22;;;18.00;99.90;;;;;;4984438;28;20343;-79
2022/10/01 09:52:42;;;;;;;8.13;5.68;;;17.90;99.90;;;;;;5000608;28;20422;-80
2022/10/01 09:55:17;;;;;;;10.52;5.50;;;17.70;99.90;;;;;;4983024;28;20402;-79
2022/10/01 09:57:52;;;;;;;9.85;5.75;;;17.60;99.90;;;;;;5002945;28;20026;-80
2022/10/01 10:00:20;;;;;;;9.18;5.72;;;17.40;99.90;;;;;;4999502;28;20038;-80
2022/10/01 10:02:48;;;;;;;9.63;5.40;;;17.30;99.90;;;;;;5005439;28;20031;-79
2022/10/01 10:05:22;;;;;;;8.80;5.13;;;17.30;99.90;;;;;;5005331;28;20117;-80
2022/10/01 10:07:58;;;;;;;8.80;5.88;;;17.40;99.90;;;;;;5008036;28;20026;-80
2022/10/01 10:10:38;;;;;;;10.75;5.75;;;17.50;99.90;;;;;;4990287;28;20045;-79
2022/10/01 10:13:26;;;;;;;9.77;6.20;;;17.60;99.90;;;;;;5003479;28;20045;-80
2022/10/01 10:15:58;;;;;;;7.40;5.68;;;17.70;99.90;;;;;;4985010;28;20042;-80
2022/10/01 10:18:33;;;;;;;11.77;7.07;;;17.90;99.90;;;;;;5005883;28;20033;-76
2022/10/01 10:21:01;;;;;;;;;;;18.00;99.90;;;;;;5003409;28;20096;-79
2022/10/01 10:23:30;;;;;;;10.32;6.28;;;17.90;99.90;;;;;;5000652;28;20358;-80
2022/10/01 10:26:03;;;;;;;10.60;6.35;;;18.10;99.90;;;;;;5007244;28;20038;-79
2022/10/01 10:28:43;;;;;;;11.82;5.90;;;18.20;99.90;;;;;;5006154;28;20402;-79
2022/10/01 10:31:13;;;;;;;8.38;4.50;;;18.40;99.90;;;;;;5007825;28;20038;-78
2022/10/01 10:33:50;;;;;;;10.75;5.00;;;18.50;99.90;;;;;;5009765;28;20026;-77
2022/10/01 10:36:18;;;;;;;7.53;4.15;;;18.40;99.90;;;;;;5006259;28;20039;-78
2022/10/01 10:38:48;;;;;;;8.85;5.32;;;18.80;99.90;;;;;;4999897;28;20026;-80
2022/10/01 10:41:18;;;;;;;7.60;3.63;;;19.50;99.90;;;;;;5002426;28;20669;-79
2022/10/01 10:43:47;;;;;;;9.23;4.28;;;19.90;99.90;;;;;;4984774;28;20026;-79
2022/10/01 10:46:22;;;;;;;5.38;3.17;;;19.90;99.90;;;;;;5003545;28;20033;-79
2022/10/01 10:48:57;;;;;;;5.85;2.38;;;20.30;99.90;;;;;;4984059;28;20482;-78
2022/10/01 10:51:23;;;;;;;2.80;2.50;;;20.60;99.90;;;;;;4986696;28;20042;-78
2022/10/01 10:53:49;;;;;;;4.50;2.28;;;20.90;99.90;;;;;;4987997;28;20033;-78
2022/10/01 10:56:21;;;;;;;4.15;2.55;;;21.20;99.90;;;;;;4987517;28;20046;-79
2022/10/01 10:58:49;;;;;;;6.32;3.20;;;21.40;99.90;;;;;;4999680;28;20026;-79
2022/10/01 11:01:20;;;;;;;6.68;2.80;;;21.70;99.90;;;;;;5000726;28;20082;-80
2022/10/01 11:03:48;;;;;;;4.93;3.03;;;20.30;99.90;;;;;;4989035;28;20034;-79
2022/10/01 11:06:17;;;;;;;4.05;2.80;;;19.50;99.90;;;;;;5010284;28;20057;-79
2022/10/01 11:08:55;;;;;;;6.38;2.90;;;19.30;99.90;;;;;;4994997;28;20042;-79
2022/10/01 11:11:42;;;;;;;3.05;2.30;;;19.50;99.90;;;;;;5009703;28;20035;-79
2022/10/01 11:14:26;;;;;;;5.13;3.10;;;19.90;99.90;;;;;;5005507;28;20028;-79
2022/10/01 11:17:18;;;;;;;3.60;2.67;;;20.20;99.90;;;;;;5001459;28;20038;-81
2022/10/01 11:20:13;;;;;;;3.88;2.58;;;20.10;99.90;;;;;;4998085;28;20038;-79
2022/10/01 11:23:08;;;;;;;2.92;2.55;;;20.20;99.90;;;;;;4985636;28;20110;-78
2022/10/01 11:25:48;;;;;;;3.53;2.60;;;20.60;99.90;;;;;;4998090;28;20049;-79
2022/10/01 11:28:32;;;;;;;4.57;2.38;;;21.20;99.90;;;;;;4981236;28;20034;-79
2022/10/01 11:31:21;;;;;;;3.88;2.25;;;22.10;99.90;;;;;;5001161;28;20030;-78
2022/10/01 11:34:17;;;;;;;4.75;2.05;;;22.00;99.70;;;;;;4981410;28;20554;-80
2022/10/01 11:37:16;;;;;;;4.47;1.92;;;22.30;99.50;;;;;;4997448;28;20076;-78
2022/10/01 11:39:43;;;;;;;2.28;1.45;;;21.90;98.20;;;;;;4984394;28;20040;-79
2022/10/01 11:42:13;;;;;;;2.33;1.60;;;22.40;98.10;;;;;;4997271;28;20015;-79
2022/10/01 11:44:43;;;;;;;6.28;1.60;;;23.80;96.40;;;;;;4995813;28;20023;-81
2022/10/01 11:47:24;;;;;;;2.00;1.60;;;23.00;95.40;;;;;;4997343;28;20041;-83
2022/10/01 11:49:59;;;;;;;3.28;1.60;;;22.90;95.60;;;;;;4978368;28;20042;-81
2022/10/01 11:52:42;;;;;;;2.85;1.95;;;23.40;94.80;;;;;;5000621;28;20022;-81
2022/10/01 11:58:50;;;;;;;7.03;4.43;;;23.10;97.30;;;;;;4984016;28;20030;-81
2022/10/01 12:01:46;;;;;;;7.90;5.20;;;22.30;99.10;;;;;;4983970;28;20030;-83
2022/10/01 12:04:36;;;;;;;5.75;4.50;;;21.30;99.90;;;;;;4986584;28;20022;-81
2022/10/01 12:07:26;;;;;;;6.78;4.30;;;20.90;99.90;;;;;;5004141;28;20085;-80
2022/10/01 12:10:15;;;;;;;6.60;3.92;;;20.90;99.90;;;;;;4983544;28;20041;-82
2022/10/01 12:12:57;;;;;;;7.82;4.70;;;20.40;99.90;;;;;;4983934;28;20041;-83
2022/10/01 12:15:42;;;;;;;4.80;3.45;;;20.10;99.90;;;;;;5005805;28;20062;-80
2022/10/01 12:18:43;;;;;;;8.70;3.13;;;20.10;99.90;;;;;;4991944;28;20027;-82
2022/10/01 12:21:36;;;;;;;3.35;1.73;;;19.90;99.90;;;;;;5009792;28;20118;-81
2022/10/01 12:24:11;;;;;;;3.17;2.58;;;20.30;99.90;;;;;;5009108;28;20037;-80
2022/10/01 12:27:33;;;;;;;5.80;4.43;;;20.40;99.90;;;;;;5005331;28;20132;-82
2022/10/01 12:30:09;;;;;;;6.00;4.75;;;20.20;99.90;;;;;;4946312;29;20043;-80
2022/10/01 12:32:34;;;;;;;4.43;3.30;;;20.20;99.90;;;;;;5008954;28;20099;-80
2022/10/01 12:35:06;;;;;;;10.23;2.65;;;20.00;99.90;;;;;;4974838;28;20439;-79
2022/10/01 12:37:38;;;;;;;4.60;2.78;;;20.60;99.90;;;;;;5008698;28;20030;-81
2022/10/01 12:40:44;;;;;;;8.45;4.30;;;21.00;99.90;;;;;;4985447;28;20483;-79
2022/10/01 12:43:34;;;;;;;4.43;2.67;;;20.40;99.90;;;;;;4980626;28;20042;-80
2022/10/01 12:46:19;;;;;;;2.30;1.65;;;20.40;99.90;;;;;;4997756;28;20080;-80
2022/10/01 12:48:53;;;;;;;3.17;1.45;;;20.70;99.90;;;;;;5006899;28;20034;-79
2022/10/01 12:51:44;;;;;;;2.08;1.67;;;20.70;99.90;;;;;;5007182;28;20034;-79
2022/10/01 12:54:40;;;;;;;2.33;1.80;;;20.60;99.90;;;;;;4993739;28;20057;-80
2022/10/01 12:57:43;;;;;;;2.38;1.92;;;20.40;99.90;;;;;;4998175;28;20023;-80
2022/10/01 13:00:16;;;;;;;2.55;1.67;;;20.40;99.90;;;;;;4989510;28;20450;-79
2022/10/01 13:03:06;;;;;;;2.15;1.95;;;20.50;99.90;;;;;;4989455;28;20037;-80
2022/10/01 13:06:03;;;;;;;5.40;1.90;;;20.30;99.90;;;;;;4992514;28;20050;-81